Time;durP1;ratioP1;P1;durP2;ratioP2;P2;SDS_P1;SDS_P2;PMS_P1;PMS_P2;Temp;Humidity;BMP_temperature;BMP_pressure;BME280_temperature;BME280_humidity;BME280_pressure;Samples;Min_cycle;Max_cycle;Signal;HPM_P1;HPM_P2
2024/01/05 00:01:25;;;;;;;5.70;4.78;;;1.90;99.90;;;;;;5022199;28;20025;-41
2024/01/05 00:03:51;;;;;;;9.23;4.50;;;1.90;99.90;;;;;;5021118;28;20045;-37
2024/01/05 00:06:16;;;;;;;6.65;4.82;;;1.90;99.90;;;;;;5020975;28;20088;-39
2024/01/05 00:08:42;;;;;;;10.10;5.63;;;1.90;99.90;;;;;;5017062;28;20465;-40
2024/01/05 00:11:07;;;;;;;7.93;5.63;;;2.00;99.90;;;;;;5019839;28;20029;-40
2024/01/05 00:13:33;;;;;;;8.23;5.20;;;1.90;99.90;;;;;;5017133;28;20025;-40
2024/01/05 00:15:59;;;;;;;12.65;6.10;;;2.00;99.90;;;;;;5020747;28;20034;-40
2024/01/05 00:18:24;;;;;;;13.88;6.57;;;2.00;99.90;;;;;;5014231;28;20030;-41
2024/01/05 00:20:50;;;;;;;10.63;4.85;;;2.00;99.90;;;;;;5017737;28;20033;-38
2024/01/05 00:23:15;;;;;;;6.28;4.07;;;2.00;99.90;;;;;;5015467;28;20048;-39
2024/01/05 00:25:41;;;;;;;5.07;3.58;;;2.00;99.90;;;;;;5016614;28;20067;-40
2024/01/05 00:28:07;;;;;;;5.22;3.50;;;2.00;99.90;;;;;;5014700;28;20064;-41
2024/01/05 00:30:35;;;;;;;7.38;4.38;;;1.90;99.90;;;;;;5014708;28;20021;-34
2024/01/05 00:33:01;;;;;;;7.82;3.30;;;1.80;99.90;;;;;;5017534;28;20057;-31
2024/01/05 00:35:27;;;;;;;4.07;2.60;;;1.70;99.90;;;;;;5016544;28;20110;-33
2024/01/05 00:37:52;;;;;;;3.88;2.42;;;1.60;99.90;;;;;;5018287;28;20386;-36
2024/01/05 00:40:18;;;;;;;3.67;2.55;;;1.50;99.90;;;;;;5023226;28;20026;-32
2024/01/05 00:42:44;;;;;;;2.83;2.42;;;1.50;99.90;;;;;;5020855;28;20029;-32
2024/01/05 00:45:10;;;;;;;4.30;2.60;;;1.50;99.90;;;;;;5019525;28;20026;-32
2024/01/05 00:47:35;;;;;;;6.88;4.50;;;1.40;99.90;;;;;;5019747;28;20029;-32
2024/01/05 00:50:01;;;;;;;6.32;5.00;;;1.50;99.90;;;;;;5020434;28;20033;-32
2024/01/05 00:52:27;;;;;;;6.75;4.68;;;1.40;99.90;;;;;;5020175;28;20479;-34
2024/01/05 00:54:52;;;;;;;7.18;4.50;;;1.50;99.90;;;;;;5020172;28;20040;-36
2024/01/05 00:57:18;;;;;;;11.98;5.35;;;1.50;99.90;;;;;;5018416;28;20029;-33
2024/01/05 00:59:43;;;;;;;6.25;3.40;;;1.50;99.90;;;;;;5022875;28;20028;-33
2024/01/05 01:02:09;;;;;;;4.55;3.10;;;1.60;99.90;;;;;;5019823;28;20033;-34
2024/01/05 01:04:35;;;;;;;7.28;3.97;;;1.60;99.90;;;;;;5018140;28;20033;-32
2024/01/05 01:07:00;;;;;;;5.68;4.25;;;1.60;99.90;;;;;;5018317;28;20033;-35
2024/01/05 01:09:26;;;;;;;6.85;3.35;;;1.60;99.90;;;;;;5022980;28;20619;-33
2024/01/05 01:11:51;;;;;;;3.17;2.78;;;1.60;99.90;;;;;;5021027;28;20025;-32
2024/01/05 01:14:18;;;;;;;3.85;2.75;;;1.60;99.90;;;;;;5019372;28;20103;-34
2024/01/05 01:16:43;;;;;;;5.15;2.78;;;1.50;99.90;;;;;;5020816;28;20092;-32
2024/01/05 01:19:09;;;;;;;4.35;3.63;;;1.50;99.90;;;;;;5017499;28;20025;-35
2024/01/05 01:21:34;;;;;;;3.10;2.75;;;1.50;99.90;;;;;;5016973;28;20033;-32
2024/01/05 01:24:00;;;;;;;6.45;3.72;;;1.50;99.90;;;;;;5016012;28;20083;-33
2024/01/05 01:26:26;;;;;;;6.85;3.10;;;1.40;99.90;;;;;;5018131;28;20040;-32
2024/01/05 01:28:51;;;;;;;4.40;3.53;;;1.40;99.90;;;;;;5019368;28;20399;-32
2024/01/05 01:31:17;;;;;;;3.17;2.85;;;1.50;99.90;;;;;;5015908;28;20049;-33
2024/01/05 01:33:42;;;;;;;5.32;3.20;;;1.60;99.90;;;;;;5018806;28;20050;-36
2024/01/05 01:36:08;;;;;;;4.07;2.78;;;1.60;99.90;;;;;;5018859;28;20029;-33
2024/01/05 01:38:34;;;;;;;2.80;2.58;;;1.70;99.90;;;;;;5015183;28;20029;-35
2024/01/05 01:40:59;;;;;;;3.45;2.88;;;1.60;99.90;;;;;;5018057;28;20111;-39
2024/01/05 01:43:26;;;;;;;5.88;3.28;;;1.50;99.90;;;;;;5018080;28;20044;-40
2024/01/05 01:45:55;;;;;;;3.33;2.53;;;1.50;99.90;;;;;;5018988;28;20061;-40
2024/01/05 01:48:21;;;;;;;3.47;3.10;;;1.50;99.90;;;;;;5018183;28;20037;-42
2024/01/05 01:50:48;;;;;;;3.80;3.25;;;1.50;99.90;;;;;;5016451;28;20072;-39
2024/01/05 01:53:15;;;;;;;3.10;2.90;;;1.50;99.90;;;;;;5019685;28;20035;-39
2024/01/05 01:55:41;;;;;;;4.43;3.97;;;1.40;99.90;;;;;;5017248;28;20685;-39
2024/01/05 01:58:08;;;;;;;6.55;3.40;;;1.40;99.90;;;;;;5016153;28;20026;-40
2024/01/05 02:00:34;;;;;;;3.33;3.03;;;1.30;99.90;;;;;;5018551;28;20114;-40
2024/01/05 02:03:03;;;;;;;4.65;3.45;;;1.30;99.90;;;;;;5017835;28;20525;-39
2024/01/05 02:05:28;;;;;;;;;;;1.30;99.90;;;;;;5016714;28;20029;-35
2024/01/05 02:07:55;;;;;;;7.57;3.60;;;1.20;99.90;;;;;;5018768;28;19921;-36
2024/01/05 02:10:21;;;;;;;6.32;3.58;;;1.20;99.90;;;;;;5019372;28;20438;-42
2024/01/05 02:12:47;;;;;;;6.18;2.88;;;1.20;99.90;;;;;;5019846;28;20022;-41
2024/01/05 02:15:12;;;;;;;4.55;3.13;;;1.20;99.90;;;;;;5016671;28;20708;-40
2024/01/05 02:17:38;;;;;;;6.50;3.42;;;1.30;99.90;;;;;;5014776;28;20480;-39
2024/01/05 02:20:04;;;;;;;5.85;3.30;;;1.20;99.90;;;;;;5013838;28;20021;-41
2024/01/05 02:22:33;;;;;;;3.83;3.38;;;1.20;99.90;;;;;;5018226;28;20495;-38
2024/01/05 02:24:58;;;;;;;3.70;2.85;;;1.30;99.90;;;;;;5016458;28;20498;-40
2024/01/05 02:27:25;;;;;;;5.20;3.13;;;1.30;99.90;;;;;;5017709;28;20034;-42
2024/01/05 02:29:51;;;;;;;8.32;3.10;;;1.40;99.90;;;;;;5020396;28;20036;-37
2024/01/05 02:32:17;;;;;;;3.75;2.42;;;1.40;99.90;;;;;;5017119;28;20034;-40
2024/01/05 02:34:43;;;;;;;5.75;3.13;;;1.40;99.90;;;;;;5017403;28;20049;-41
2024/01/05 02:37:09;;;;;;;4.00;2.83;;;1.10;99.90;;;;;;5020208;28;20029;-34
2024/01/05 02:39:35;;;;;;;4.50;3.17;;;1.00;99.90;;;;;;5021267;28;20133;-41
2024/01/05 02:42:01;;;;;;;6.43;3.20;;;1.00;99.90;;;;;;5018908;28;20144;-40
2024/01/05 02:44:27;;;;;;;2.92;2.38;;;1.00;99.90;;;;;;5015931;28;20029;-40
2024/01/05 02:46:52;;;;;;;4.47;2.63;;;1.10;99.90;;;;;;5020528;28;20104;-39
2024/01/05 02:49:18;;;;;;;6.35;3.35;;;1.00;99.90;;;;;;5021821;28;20072;-41
2024/01/05 02:51:43;;;;;;;5.40;3.78;;;1.10;99.90;;;;;;5020269;28;20065;-33
2024/01/05 02:54:10;;;;;;;3.28;2.88;;;1.00;99.90;;;;;;5019518;28;20479;-36
2024/01/05 02:56:35;;;;;;;3.50;3.17;;;0.90;99.90;;;;;;5023746;28;20036;-32
2024/01/05 02:59:03;;;;;;;4.07;3.20;;;1.00;99.90;;;;;;5020622;28;20026;-36
2024/01/05 03:01:29;;;;;;;3.03;2.83;;;0.90;99.90;;;;;;5021622;28;20026;-35
2024/01/05 03:03:54;;;;;;;3.10;2.78;;;1.00;99.90;;;;;;5015733;28;20047;-32
2024/01/05 03:06:20;;;;;;;4.55;2.28;;;1.10;99.90;;;;;;5023231;28;20064;-34
2024/01/05 03:08:46;;;;;;;3.70;2.55;;;1.10;99.90;;;;;;5021568;28;20032;-32
2024/01/05 03:11:12;;;;;;;3.45;3.15;;;1.20;99.90;;;;;;5019101;28;20523;-34
2024/01/05 03:13:37;;;;;;;4.43;2.42;;;1.20;99.90;;;;;;5016384;28;20120;-32
2024/01/05 03:16:04;;;;;;;2.70;2.47;;;1.10;99.90;;;;;;5020123;28;20368;-34
2024/01/05 03:18:30;;;;;;;2.03;1.80;;;1.10;99.90;;;;;;5018154;28;20049;-34
2024/01/05 03:20:56;;;;;;;9.57;3.45;;;1.20;99.90;;;;;;5020204;28;21404;-34
2024/01/05 03:23:22;;;;;;;5.13;2.78;;;1.10;99.90;;;;;;5018704;28;20053;-32
2024/01/05 03:25:48;;;;;;;3.03;2.60;;;1.00;99.90;;;;;;5021229;28;20030;-32
2024/01/05 03:28:14;;;;;;;5.90;2.72;;;1.00;99.90;;;;;;5022186;28;20092;-32
2024/01/05 03:30:41;;;;;;;3.03;2.60;;;1.00;99.90;;;;;;5016129;28;20734;-33
2024/01/05 03:33:06;;;;;;;2.67;2.40;;;1.00;99.90;;;;;;5023510;28;20041;-31
2024/01/05 03:35:32;;;;;;;3.60;2.28;;;1.00;99.90;;;;;;5019864;28;20025;-32
2024/01/05 03:37:58;;;;;;;4.32;2.45;;;1.10;99.90;;;;;;5021224;28;20037;-32
2024/01/05 03:40:23;;;;;;;3.88;2.30;;;1.00;99.90;;;;;;5022002;28;20053;-33
2024/01/05 03:42:49;;;;;;;3.72;1.98;;;1.00;99.90;;;;;;5022519;28;20526;-35
2024/01/05 03:45:14;;;;;;;6.90;2.42;;;1.00;99.90;;;;;;5017844;28;20084;-32
2024/01/05 03:47:40;;;;;;;2.50;2.10;;;1.00;99.90;;;;;;5019903;28;20030;-34
2024/01/05 03:50:06;;;;;;;3.22;2.45;;;1.00;99.90;;;;;;5017484;28;20545;-33
2024/01/05 03:52:32;;;;;;;2.95;2.25;;;1.00;99.90;;;;;;5015406;28;20033;-33
2024/01/05 03:54:58;;;;;;;4.38;2.60;;;1.00;99.90;;;;;;5020611;28;20482;-32
2024/01/05 03:57:23;;;;;;;5.13;2.50;;;1.00;99.90;;;;;;5021257;28;20034;-34
2024/01/05 03:59:50;;;;;;;2.17;1.95;;;1.00;99.90;;;;;;5019472;28;20112;-33
2024/01/05 04:02:16;;;;;;;1.92;1.80;;;1.00;99.90;;;;;;5017676;28;20041;-37
2024/01/05 04:04:42;;;;;;;1.85;1.75;;;0.90;99.90;;;;;;5019612;28;20029;-33
2024/01/05 04:07:08;;;;;;;4.20;2.10;;;1.00;99.90;;;;;;5018369;28;20021;-34
2024/01/05 04:09:33;;;;;;;4.03;2.08;;;1.00;99.90;;;;;;5015800;28;20029;-34
2024/01/05 04:11:59;;;;;;;5.07;2.78;;;0.90;99.90;;;;;;5019888;28;20345;-32
2024/01/05 04:14:25;;;;;;;3.45;2.42;;;0.90;99.90;;;;;;5021145;28;20057;-34
2024/01/05 04:16:51;;;;;;;5.75;2.60;;;1.00;99.90;;;;;;5022168;28;20033;-33
2024/01/05 04:19:16;;;;;;;2.63;2.42;;;0.90;99.90;;;;;;5025396;28;20030;-32
2024/01/05 04:21:42;;;;;;;2.67;2.42;;;0.90;99.90;;;;;;5016620;28;20022;-32
2024/01/05 04:24:08;;;;;;;3.50;2.63;;;1.00;99.90;;;;;;5021412;28;20021;-34
2024/01/05 04:26:34;;;;;;;2.13;1.95;;;0.90;99.90;;;;;;5017018;28;20053;-33
2024/01/05 04:29:00;;;;;;;5.68;2.42;;;0.90;99.90;;;;;;5016559;28;20037;-32
2024/01/05 04:31:26;;;;;;;5.28;2.25;;;1.00;99.90;;;;;;5016999;28;20064;-32
2024/01/05 04:33:53;;;;;;;4.30;2.50;;;1.00;99.90;;;;;;5021782;28;20049;-33
2024/01/05 04:36:19;;;;;;;3.55;2.20;;;1.00;99.90;;;;;;5020782;28;20029;-32
2024/01/05 04:38:44;;;;;;;4.90;2.65;;;1.00;99.90;;;;;;5020996;28;20033;-33
2024/01/05 04:41:14;;;;;;;2.95;2.17;;;1.10;99.90;;;;;;5017937;28;20057;-34
2024/01/05 04:43:40;;;;;;;4.07;2.25;;;1.20;99.90;;;;;;5020138;28;20106;-34
2024/01/05 04:46:07;;;;;;;1.98;1.80;;;1.20;99.90;;;;;;5020093;28;20033;-32
2024/01/05 04:48:33;;;;;;;2.30;2.08;;;1.20;99.90;;;;;;5018734;28;20122;-35
2024/01/05 04:51:00;;;;;;;2.97;2.40;;;1.20;99.90;;;;;;5017848;28;20519;-38
2024/01/05 04:53:26;;;;;;;2.45;2.25;;;1.20;99.90;;;;;;5022373;28;20033;-31
2024/01/05 04:55:52;;;;;;;3.05;1.92;;;1.20;99.90;;;;;;5019436;28;20348;-35
2024/01/05 04:58:17;;;;;;;1.90;1.80;;;1.20;99.90;;;;;;5017423;28;20025;-34
2024/01/05 05:00:43;;;;;;;2.05;1.92;;;1.20;99.90;;;;;;5018680;28;20164;-31
2024/01/05 05:03:13;;;;;;;9.68;5.50;;;1.20;99.90;;;;;;5018050;28;20116;-32
2024/01/05 05:05:39;;;;;;;9.73;5.30;;;1.30;99.90;;;;;;5019193;28;20029;-33
2024/01/05 05:08:05;;;;;;;3.08;2.38;;;1.30;99.90;;;;;;5018272;28;20485;-35
2024/01/05 05:10:31;;;;;;;2.90;2.70;;;1.40;99.90;;;;;;5020986;28;20034;-35
2024/01/05 05:12:56;;;;;;;5.00;2.50;;;1.40;99.90;;;;;;5014757;28;20025;-34
2024/01/05 05:15:22;;;;;;;1.95;1.80;;;1.40;99.90;;;;;;5018518;28;20510;-34
2024/01/05 05:17:47;;;;;;;2.45;2.25;;;1.30;99.90;;;;;;5018918;28;20542;-34
2024/01/05 05:20:13;;;;;;;4.35;2.50;;;1.30;99.90;;;;;;5018162;28;20026;-32
2024/01/05 05:22:39;;;;;;;2.92;2.33;;;1.30;99.90;;;;;;5022293;28;20022;-32
2024/01/05 05:25:05;;;;;;;2.63;2.42;;;1.30;99.90;;;;;;5018463;28;20029;-32
2024/01/05 05:27:31;;;;;;;3.25;2.25;;;1.30;99.90;;;;;;5018485;28;20520;-32
2024/01/05 05:29:57;;;;;;;3.55;1.98;;;1.30;99.90;;;;;;5019464;28;20418;-33
2024/01/05 05:32:23;;;;;;;2.08;1.90;;;1.40;99.90;;;;;;5019136;28;20034;-36
2024/01/05 05:34:49;;;;;;;2.53;2.33;;;1.40;99.90;;;;;;5019299;28;20491;-32
2024/01/05 05:37:15;;;;;;;3.22;2.13;;;1.40;99.90;;;;;;5015798;28;20026;-31
2024/01/05 05:39:40;;;;;;;5.35;2.17;;;1.40;99.90;;;;;;5018714;28;20040;-32
2024/01/05 05:42:06;;;;;;;3.75;2.17;;;1.40;99.90;;;;;;5017374;28;20462;-33
2024/01/05 05:44:31;;;;;;;3.13;2.33;;;1.40;99.90;;;;;;5021029;28;20026;-32
2024/01/05 05:46:57;;;;;;;1.45;1.40;;;1.40;99.90;;;;;;5018019;28;20038;-33
2024/01/05 05:49:23;;;;;;;2.30;1.88;;;1.40;99.90;;;;;;5015294;28;20022;-32
2024/01/05 05:51:48;;;;;;;4.13;3.03;;;1.50;99.90;;;;;;5018962;28;20092;-32
2024/01/05 05:54:14;;;;;;;2.60;2.40;;;1.50;99.90;;;;;;5016180;28;20029;-34
2024/01/05 05:56:40;;;;;;;5.35;2.90;;;1.50;99.90;;;;;;5015178;28;20040;-32
2024/01/05 05:59:06;;;;;;;3.95;1.98;;;1.60;99.90;;;;;;5019491;28;20038;-35
2024/01/05 06:01:32;;;;;;;2.50;1.73;;;1.60;99.90;;;;;;5018317;28;20548;-34
2024/01/05 06:03:57;;;;;;;2.72;2.15;;;1.60;99.90;;;;;;5013750;28;20018;-34
2024/01/05 06:06:23;;;;;;;2.13;1.67;;;1.60;99.90;;;;;;5018416;28;20025;-32
2024/01/05 06:08:51;;;;;;;2.72;2.35;;;1.60;99.90;;;;;;5014103;28;20050;-32
2024/01/05 06:11:18;;;;;;;2.15;1.65;;;1.60;99.90;;;;;;5018387;28;20096;-32
2024/01/05 06:13:45;;;;;;;2.15;1.90;;;1.60;99.90;;;;;;5023240;28;20033;-33
2024/01/05 06:16:11;;;;;;;3.42;1.90;;;1.60;99.90;;;;;;5021215;28;20028;-34
2024/01/05 06:18:37;;;;;;;3.28;2.40;;;1.60;99.90;;;;;;5022690;28;20030;-32
2024/01/05 06:21:03;;;;;;;1.90;1.80;;;1.60;99.90;;;;;;5016426;28;20109;-32
2024/01/05 06:23:30;;;;;;;1.95;1.73;;;1.60;99.90;;;;;;5021471;28;20757;-35
2024/01/05 06:25:56;;;;;;;4.63;2.78;;;1.60;99.90;;;;;;5022379;28;20038;-34
2024/01/05 06:28:21;;;;;;;3.60;2.60;;;1.60;99.90;;;;;;5021570;28;20427;-33
2024/01/05 06:30:47;;;;;;;4.82;3.15;;;1.60;99.90;;;;;;5018606;28;20081;-37
2024/01/05 06:33:12;;;;;;;6.68;3.22;;;1.60;99.90;;;;;;5023070;28;20057;-33
2024/01/05 06:35:38;;;;;;;4.88;3.13;;;1.60;99.90;;;;;;5021794;28;20099;-32
2024/01/05 06:38:04;;;;;;;3.65;2.70;;;1.70;99.90;;;;;;5020599;28;20396;-32
2024/01/05 06:40:29;;;;;;;4.97;3.10;;;1.70;99.90;;;;;;5022730;28;20497;-33
2024/01/05 06:42:57;;;;;;;2.35;1.95;;;1.70;99.90;;;;;;5020094;28;20033;-35
2024/01/05 06:45:25;;;;;;;3.00;2.70;;;1.70;99.90;;;;;;5022142;28;20040;-34
2024/01/05 06:47:51;;;;;;;;;;;1.70;99.90;;;;;;5023510;28;20045;-33
2024/01/05 06:50:17;;;;;;;2.53;2.25;;;1.60;99.90;;;;;;5034964;28;19914;-34
2024/01/05 06:52:43;;;;;;;5.65;2.45;;;1.70;99.90;;;;;;5019653;28;20113;-32
2024/01/05 06:55:09;;;;;;;2.63;2.25;;;1.70;99.90;;;;;;5022192;28;20108;-32
2024/01/05 06:57:35;;;;;;;2.95;2.65;;;1.70;99.90;;;;;;5024266;28;20041;-35
2024/01/05 07:00:05;;;;;;;5.05;2.15;;;1.70;99.90;;;;;;5020741;28;20030;-34
2024/01/05 07:02:31;;;;;;;4.68;3.25;;;1.70;99.90;;;;;;5019807;28;20108;-35
2024/01/05 07:04:57;;;;;;;4.32;3.10;;;1.70;99.90;;;;;;5017839;28;20022;-34
2024/01/05 07:07:23;;;;;;;3.92;2.53;;;1.70;99.90;;;;;;5019010;28;20037;-34
2024/01/05 07:09:49;;;;;;;5.90;3.60;;;1.80;99.90;;;;;;5022112;28;20060;-32
2024/01/05 07:12:15;;;;;;;4.38;3.63;;;1.80;99.90;;;;;;5022049;28;20052;-34
2024/01/05 07:14:40;;;;;;;3.03;2.65;;;1.80;99.90;;;;;;5021871;28;20034;-32
2024/01/05 07:17:06;;;;;;;6.85;3.30;;;1.80;99.90;;;;;;5020562;28;20026;-32
2024/01/05 07:19:31;;;;;;;5.22;3.15;;;1.70;99.90;;;;;;5019262;28;20091;-34
2024/01/05 07:21:57;;;;;;;3.80;3.42;;;1.80;99.90;;;;;;5017868;28;20017;-33
2024/01/05 07:24:23;;;;;;;3.25;2.50;;;1.80;99.90;;;;;;5017439;28;20041;-34
2024/01/05 07:26:48;;;;;;;4.88;3.15;;;1.90;99.90;;;;;;5018726;28;20419;-35
2024/01/05 07:29:14;;;;;;;6.95;3.42;;;1.80;99.90;;;;;;5021736;28;20033;-35
2024/01/05 07:31:40;;;;;;;5.65;3.72;;;1.80;99.90;;;;;;5015854;28;20053;-32
2024/01/05 07:34:06;;;;;;;3.65;3.17;;;1.80;99.90;;;;;;5019673;28;20529;-33
2024/01/05 07:36:31;;;;;;;4.03;3.17;;;1.80;99.90;;;;;;5018701;28;20025;-38
2024/01/05 07:38:59;;;;;;;3.33;3.03;;;1.90;99.90;;;;;;5016917;28;20033;-32
2024/01/05 07:41:28;;;;;;;3.30;2.55;;;1.90;99.90;;;;;;5021800;28;20021;-35
2024/01/05 07:43:54;;;;;;;2.72;2.50;;;1.90;99.90;;;;;;5023411;28;20026;-37
2024/01/05 07:46:20;;;;;;;3.50;2.72;;;1.90;99.90;;;;;;5021086;28;20030;-31
2024/01/05 07:48:46;;;;;;;4.68;2.95;;;1.80;99.90;;;;;;5020976;28;20025;-34
2024/01/05 07:51:12;;;;;;;5.55;3.05;;;1.90;99.90;;;;;;5017645;28;20037;-41
2024/01/05 07:53:38;;;;;;;4.85;2.47;;;1.80;99.90;;;;;;5016459;28;20838;-40
2024/01/05 07:56:05;;;;;;;5.72;3.42;;;1.80;99.90;;;;;;5021907;28;20030;-40
2024/01/05 07:58:30;;;;;;;6.85;3.80;;;1.90;99.90;;;;;;5021893;28;20060;-39
2024/01/05 08:00:56;;;;;;;4.80;2.92;;;1.90;99.90;;;;;;5013714;28;20423;-39
2024/01/05 08:03:22;;;;;;;6.45;2.88;;;1.80;99.90;;;;;;5022375;28;20069;-40
2024/01/05 08:05:48;;;;;;;4.57;2.60;;;1.80;99.90;;;;;;5019233;28;20026;-39
2024/01/05 08:08:14;;;;;;;4.07;2.92;;;1.80;99.90;;;;;;5019251;28;20033;-39
2024/01/05 08:10:40;;;;;;;2.92;2.67;;;1.80;99.90;;;;;;5016872;28;20033;-37
2024/01/05 08:13:05;;;;;;;2.85;2.58;;;1.80;99.90;;;;;;5019634;28;20570;-40
2024/01/05 08:15:31;;;;;;;3.97;2.95;;;1.80;99.90;;;;;;5018930;28;20128;-38
2024/01/05 08:17:58;;;;;;;4.20;2.95;;;1.90;99.90;;;;;;5023223;28;20029;-41
2024/01/05 08:20:23;;;;;;;4.53;2.80;;;1.90;99.90;;;;;;5017768;28;20037;-37
2024/01/05 08:22:49;;;;;;;4.28;2.28;;;2.00;99.90;;;;;;5018086;28;20034;-40
2024/01/05 08:25:15;;;;;;;5.25;2.88;;;2.00;99.90;;;;;;5018528;28;20025;-40
2024/01/05 08:27:41;;;;;;;3.88;2.78;;;2.00;99.90;;;;;;5018470;28;20420;-41
2024/01/05 08:30:11;;;;;;;5.07;2.75;;;2.00;99.90;;;;;;5014870;28;20777;-40
2024/01/05 08:32:38;;;;;;;3.00;2.45;;;2.10;99.90;;;;;;5022361;28;20087;-42
2024/01/05 08:35:07;;;;;;;5.57;2.97;;;2.00;99.90;;;;;;5017872;28;20048;-39
2024/01/05 08:37:33;;;;;;;3.53;3.22;;;2.00;99.90;;;;;;5012579;28;20044;-35
2024/01/05 08:39:58;;;;;;;5.10;3.20;;;2.00;99.90;;;;;;5017684;28;20025;-41
2024/01/05 08:42:24;;;;;;;6.90;4.13;;;2.00;99.90;;;;;;5018515;28;20443;-38
2024/01/05 08:44:50;;;;;;;3.38;2.95;;;2.10;99.90;;;;;;5023595;28;20021;-40
2024/01/05 08:47:16;;;;;;;5.65;2.88;;;2.10;99.90;;;;;;5021999;28;20503;-38
2024/01/05 08:49:42;;;;;;;2.83;2.60;;;2.10;99.90;;;;;;5019629;28;20025;-38
2024/01/05 08:52:08;;;;;;;4.30;2.55;;;2.10;99.90;;;;;;5012939;28;20065;-39
2024/01/05 08:54:33;;;;;;;2.47;2.28;;;2.10;99.90;;;;;;5019349;28;20123;-40
2024/01/05 08:56:59;;;;;;;4.07;1.83;;;2.10;99.90;;;;;;5018088;28;20030;-37
2024/01/05 08:59:25;;;;;;;4.32;3.65;;;2.10;99.90;;;;;;5012310;28;20033;-38
2024/01/05 09:01:51;;;;;;;5.68;4.07;;;2.20;99.90;;;;;;5013492;28;20030;-32
2024/01/05 09:04:16;;;;;;;4.75;3.47;;;2.30;99.90;;;;;;5022224;28;20088;-33
2024/01/05 09:06:42;;;;;;;3.67;2.85;;;2.20;99.90;;;;;;5017905;28;20105;-32
2024/01/05 09:09:10;;;;;;;6.22;3.20;;;2.20;99.90;;;;;;5019642;28;20631;-32
2024/01/05 09:11:36;;;;;;;4.28;2.97;;;2.20;99.90;;;;;;5008311;28;20454;-33
2024/01/05 09:14:02;;;;;;;3.03;2.28;;;2.30;99.90;;;;;;5022671;28;20033;-34
2024/01/05 09:16:27;;;;;;;4.97;2.72;;;2.40;99.90;;;;;;5015082;28;20030;-34
2024/01/05 09:18:53;;;;;;;3.20;2.63;;;2.50;99.90;;;;;;5020831;28;20153;-38
2024/01/05 09:21:18;;;;;;;4.88;2.72;;;2.60;99.90;;;;;;5013857;28;20036;-32
2024/01/05 09:23:44;;;;;;;3.15;2.53;;;2.70;99.90;;;;;;5016285;28;20026;-33
2024/01/05 09:26:14;;;;;;;2.92;2.70;;;2.80;99.90;;;;;;5017789;28;20157;-32
2024/01/05 09:28:40;;;;;;;5.20;3.28;;;3.00;99.90;;;;;;5019373;28;20031;-36
2024/01/05 09:31:06;;;;;;;3.70;3.35;;;3.00;99.90;;;;;;5011357;28;20060;-32
2024/01/05 09:33:32;;;;;;;3.40;2.72;;;3.00;99.90;;;;;;5015667;28;20049;-33
2024/01/05 09:35:59;;;;;;;4.93;2.88;;;3.00;99.90;;;;;;5017641;28;20447;-35
2024/01/05 09:38:24;;;;;;;4.55;3.33;;;3.00;99.90;;;;;;5014021;28;20021;-35
2024/01/05 09:40:52;;;;;;;5.88;3.90;;;3.00;99.90;;;;;;5015630;28;20494;-36
2024/01/05 09:43:21;;;;;;;7.00;3.92;;;3.10;99.90;;;;;;5015001;28;20029;-35
2024/01/05 09:45:50;;;;;;;5.97;3.78;;;3.10;99.90;;;;;;5023070;28;20172;-34
2024/01/05 09:48:20;;;;;;;4.55;3.45;;;3.10;99.90;;;;;;5018092;28;20034;-33
2024/01/05 09:50:54;;;;;;;5.72;3.42;;;3.30;99.90;;;;;;5024959;28;20057;-33
2024/01/05 09:53:20;;;;;;;7.13;3.67;;;3.30;99.90;;;;;;5018185;28;20583;-33
2024/01/05 09:55:50;;;;;;;4.50;3.33;;;3.40;99.90;;;;;;5023501;28;20112;-34
2024/01/05 09:58:17;;;;;;;5.88;4.10;;;3.40;99.90;;;;;;5019682;28;20033;-35
2024/01/05 10:00:52;;;;;;;4.60;3.63;;;3.50;99.90;;;;;;5020322;28;20026;-33
2024/01/05 10:03:23;;;;;;;5.78;3.78;;;3.60;99.90;;;;;;5022313;28;20483;-34
2024/01/05 10:05:53;;;;;;;5.90;3.85;;;3.70;99.90;;;;;;5019937;28;20045;-36
2024/01/05 10:08:21;;;;;;;5.50;4.15;;;3.80;99.90;;;;;;5023072;28;20064;-36
2024/01/05 10:10:48;;;;;;;5.35;4.03;;;3.90;99.90;;;;;;5021918;28;20095;-33
2024/01/05 10:13:15;;;;;;;6.63;4.32;;;4.00;99.90;;;;;;5020178;28;20037;-35
2024/01/05 10:15:55;;;;;;;8.18;4.60;;;4.00;99.90;;;;;;5021936;28;20048;-34
2024/01/05 10:18:22;;;;;;;5.90;3.63;;;4.10;99.90;;;;;;5022679;28;20529;-32
2024/01/05 10:20:47;;;;;;;4.53;3.40;;;4.10;99.90;;;;;;5018116;28;20453;-32
2024/01/05 10:23:16;;;;;;;7.68;3.65;;;4.20;99.90;;;;;;5019715;28;20290;-35
2024/01/05 10:25:41;;;;;;;;;;;4.30;99.90;;;;;;5018768;28;20026;-33
2024/01/05 10:28:26;;;;;;;4.82;3.10;;;4.30;99.90;;;;;;5017616;28;19933;-33
2024/01/05 10:30:52;;;;;;;7.82;3.40;;;4.40;99.90;;;;;;5019135;28;20064;-32
2024/01/05 10:33:19;;;;;;;4.30;3.17;;;4.50;99.90;;;;;;5017853;28;20057;-32
2024/01/05 10:35:45;;;;;;;5.75;2.95;;;4.60;99.90;;;;;;5021219;28;20471;-34
2024/01/05 10:38:13;;;;;;;3.80;3.42;;;4.70;99.90;;;;;;5018231;28;20573;-32
2024/01/05 10:40:39;;;;;;;6.30;4.18;;;4.70;99.90;;;;;;5019533;28;20029;-31
2024/01/05 10:43:09;;;;;;;4.85;4.05;;;4.80;99.90;;;;;;5019035;28;20033;-32
2024/01/05 10:45:36;;;;;;;4.45;3.33;;;4.80;99.90;;;;;;5020253;28;20372;-32
2024/01/05 10:48:04;;;;;;;6.10;4.05;;;4.80;99.90;;;;;;5021251;28;20068;-35
2024/01/05 10:50:32;;;;;;;10.23;4.90;;;4.90;99.90;;;;;;5015270;28;20022;-36
2024/01/05 10:52:59;;;;;;;4.78;4.30;;;5.00;99.90;;;;;;5020191;28;20061;-33
2024/01/05 10:55:25;;;;;;;5.10;4.35;;;5.00;99.90;;;;;;5022456;28;20033;-32
2024/01/05 10:57:50;;;;;;;6.45;5.90;;;5.10;99.90;;;;;;5018631;28;20059;-32
2024/01/05 11:00:16;;;;;;;6.35;5.75;;;5.20;99.90;;;;;;5022578;28;20041;-35
2024/01/05 11:02:48;;;;;;;8.60;4.25;;;5.20;99.90;;;;;;5023066;28;20033;-32
2024/01/05 11:05:14;;;;;;;93.57;51.53;;;5.40;99.90;;;;;;5014617;28;20395;-35
2024/01/05 11:07:42;;;;;;;6.75;5.15;;;5.40;99.90;;;;;;5019710;28;20032;-34
2024/01/05 11:10:16;;;;;;;14.05;7.45;;;5.50;99.90;;;;;;5018003;28;20079;-32
2024/01/05 11:13:10;;;;;;;8.77;5.28;;;5.60;99.90;;;;;;5019542;28;20038;-35
2024/01/05 11:15:47;;;;;;;7.05;4.60;;;5.60;99.90;;;;;;5016913;28;20471;-36
2024/01/05 11:18:32;;;;;;;6.53;4.55;;;5.70;99.90;;;;;;5021650;28;20032;-35
2024/01/05 11:21:09;;;;;;;4.57;4.00;;;5.70;99.90;;;;;;5022166;28;20387;-32
2024/01/05 11:23:37;;;;;;;4.72;3.65;;;5.70;99.90;;;;;;5020140;28;20479;-31
2024/01/05 11:26:25;;;;;;;5.75;4.13;;;5.80;99.90;;;;;;5020625;28;20426;-31
2024/01/05 11:28:50;;;;;;;5.22;3.83;;;5.80;99.90;;;;;;5019121;28;20242;-31
2024/01/05 11:31:45;;;;;;;5.65;4.05;;;5.90;99.90;;;;;;5016307;28;20049;-35
2024/01/05 11:34:34;;;;;;;4.05;3.60;;;5.80;99.90;;;;;;5019334;28;20506;-32
2024/01/05 11:37:02;;;;;;;14.80;7.88;;;5.90;99.90;;;;;;5014690;28;20065;-35
2024/01/05 11:39:47;;;;;;;10.27;6.47;;;6.10;99.90;;;;;;5018295;28;20036;-35
2024/01/05 11:42:24;;;;;;;8.57;4.32;;;6.30;99.90;;;;;;5018980;28;20108;-38
2024/01/05 11:45:00;;;;;;;8.45;4.38;;;6.40;99.90;;;;;;5017597;28;20487;-41
2024/01/05 11:47:37;;;;;;;5.10;4.07;;;6.50;99.90;;;;;;5005798;28;20122;-37
2024/01/05 11:50:22;;;;;;;7.72;4.40;;;6.60;99.90;;;;;;5019958;28;20033;-39
2024/01/05 11:53:06;;;;;;;5.65;4.35;;;6.60;99.90;;;;;;5019381;28;20057;-38
2024/01/05 11:55:39;;;;;;;5.78;4.38;;;6.50;99.90;;;;;;5014057;28;20530;-40
2024/01/05 11:58:08;;;;;;;6.85;4.60;;;6.50;99.90;;;;;;5022149;28;20064;-42
2024/01/05 12:00:39;;;;;;;4.53;3.60;;;6.50;99.90;;;;;;5018359;22;20441;-70
2024/01/05 12:03:05;;;;;;;6.95;3.90;;;6.50;99.90;;;;;;4989256;28;20030;-71
2024/01/05 12:05:31;;;;;;;5.20;3.83;;;6.60;99.90;;;;;;5000124;28;20027;-70
2024/01/05 12:08:00;;;;;;;4.90;3.38;;;6.60;99.90;;;;;;5003715;28;20026;-71
2024/01/05 12:10:29;;;;;;;;;;;6.60;99.90;;;;;;4985763;28;20030;-71
2024/01/05 12:12:55;;;;;;;3.50;2.92;;;6.70;99.90;;;;;;4989302;28;19917;-71
2024/01/05 12:15:25;;;;;;;5.57;3.38;;;6.70;99.90;;;;;;5003937;28;20380;-71
2024/01/05 12:18:08;;;;;;;6.47;3.85;;;6.80;99.90;;;;;;4998483;28;20052;-71
2024/01/05 12:20:34;;;;;;;6.65;3.22;;;6.80;99.90;;;;;;4994793;28;20037;-70
2024/01/05 12:23:00;;;;;;;7.93;3.95;;;6.80;99.90;;;;;;4994103;28;20550;-71
2024/01/05 12:25:26;;;;;;;9.23;4.00;;;6.90;99.90;;;;;;4992382;28;20061;-71
2024/01/05 12:27:52;;;;;;;7.68;4.25;;;6.90;99.90;;;;;;5007922;28;20041;-71
2024/01/05 12:30:18;;;;;;;5.35;4.07;;;6.90;99.90;;;;;;4998417;28;20447;-70
2024/01/05 12:32:45;;;;;;;7.38;4.45;;;6.90;99.90;;;;;;5002482;28;20405;-71
2024/01/05 12:35:11;;;;;;;4.90;4.22;;;7.00;99.90;;;;;;5007743;28;20509;-71
2024/01/05 12:37:51;;;;;;;6.22;4.03;;;7.00;99.90;;;;;;4989314;28;20025;-70
2024/01/05 12:40:35;;;;;;;6.15;3.35;;;7.10;99.90;;;;;;4989833;28;20117;-71
2024/01/05 12:43:01;;;;;;;5.00;4.07;;;7.20;99.90;;;;;;4990098;28;20029;-72
2024/01/05 12:45:27;;;;;;;5.97;3.50;;;7.20;99.90;;;;;;4991119;28;20426;-71
2024/01/05 12:47:56;;;;;;;4.15;3.17;;;7.30;99.90;;;;;;4990842;28;20105;-71
2024/01/05 12:50:29;;;;;;;5.22;3.20;;;7.30;99.90;;;;;;5000750;28;20030;-71
2024/01/05 12:52:55;;;;;;;3.30;2.83;;;7.20;99.90;;;;;;4988757;28;20119;-71
2024/01/05 12:55:32;;;;;;;6.18;3.33;;;7.30;99.90;;;;;;5007130;28;20037;-71
2024/01/05 12:58:04;;;;;;;2.92;2.53;;;7.40;99.90;;;;;;4992052;28;20021;-71